sensor_id;sensor_type;location;lat;lon;timestamp;pressure;altitude;pressure_sealevel;temperature;humidity
15694;BME280;7947;48.834;9.132;2023-11-21T00:01:47;97599.84;;;9.50;93.61
15694;BME280;7947;48.834;9.132;2023-11-21T00:04:54;97592.34;;;9.52;93.49
15694;BME280;7947;48.834;9.132;2023-11-21T00:08:00;97588.00;;;9.56;93.47
15694;BME280;7947;48.834;9.132;2023-11-21T00:11:05;97588.56;;;9.53;93.31
15694;BME280;7947;48.834;9.132;2023-11-21T00:14:09;97587.22;;;9.56;92.72
15694;BME280;7947;48.834;9.132;2023-11-21T00:17:14;97589.38;;;9.54;92.93
15694;BME280;7947;48.834;9.132;2023-11-21T00:20:19;97581.06;;;9.55;93.23
15694;BME280;7947;48.834;9.132;2023-11-21T00:23:25;97586.19;;;9.52;93.14
15694;BME280;7947;48.834;9.132;2023-11-21T00:26:30;97575.19;;;9.53;93.82
15694;BME280;7947;48.834;9.132;2023-11-21T00:29:40;97579.97;;;9.56;94.42
15694;BME280;7947;48.834;9.132;2023-11-21T00:32:43;97570.13;;;9.52;94.68
15694;BME280;7947;48.834;9.132;2023-11-21T00:35:46;97571.69;;;9.53;94.85
15694;BME280;7947;48.834;9.132;2023-11-21T00:38:51;97574.09;;;9.54;94.70
15694;BME280;7947;48.834;9.132;2023-11-21T00:41:54;97576.28;;;9.52;94.81
15694;BME280;7947;48.834;9.132;2023-11-21T00:44:56;97569.53;;;9.55;95.29
15694;BME280;7947;48.834;9.132;2023-11-21T00:47:59;97572.41;;;9.63;94.83
15694;BME280;7947;48.834;9.132;2023-11-21T00:51:03;97583.06;;;9.68;94.85
15694;BME280;7947;48.834;9.132;2023-11-21T00:54:09;97577.69;;;9.73;95.48
15694;BME280;7947;48.834;9.132;2023-11-21T00:57:12;97575.56;;;9.70;95.45
15694;BME280;7947;48.834;9.132;2023-11-21T01:00:16;97574.94;;;9.78;94.72
15694;BME280;7947;48.834;9.132;2023-11-21T01:03:20;97577.69;;;9.73;94.05
15694;BME280;7947;48.834;9.132;2023-11-21T01:06:23;97578.66;;;9.82;94.77
15694;BME280;7947;48.834;9.132;2023-11-21T01:09:28;97581.53;;;9.91;94.44
15694;BME280;7947;48.834;9.132;2023-11-21T01:12:31;97581.75;;;9.94;93.92
15694;BME280;7947;48.834;9.132;2023-11-21T01:15:34;97583.31;;;10.00;92.86
15694;BME280;7947;48.834;9.132;2023-11-21T01:18:37;97583.31;;;10.00;92.71
15694;BME280;7947;48.834;9.132;2023-11-21T01:21:41;97580.78;;;10.14;92.15
15694;BME280;7947;48.834;9.132;2023-11-21T01:24:45;97572.47;;;10.11;92.33
15694;BME280;7947;48.834;9.132;2023-11-21T01:27:48;97582.44;;;10.05;92.97
15694;BME280;7947;48.834;9.132;2023-11-21T01:30:51;97576.63;;;9.98;93.10
15694;BME280;7947;48.834;9.132;2023-11-21T01:33:54;97572.06;;;9.98;94.03
15694;BME280;7947;48.834;9.132;2023-11-21T01:36:57;97567.97;;;10.06;94.06
15694;BME280;7947;48.834;9.132;2023-11-21T01:40:02;97573.59;;;10.04;93.67
15694;BME280;7947;48.834;9.132;2023-11-21T01:43:08;97569.09;;;10.00;94.12
15694;BME280;7947;48.834;9.132;2023-11-21T01:46:11;97576.41;;;9.94;94.45
15694;BME280;7947;48.834;9.132;2023-11-21T01:49:14;97571.66;;;9.86;95.16
15694;BME280;7947;48.834;9.132;2023-11-21T01:52:19;97561.47;;;9.88;95.28
15694;BME280;7947;48.834;9.132;2023-11-21T01:55:24;97573.00;;;9.84;94.99
15694;BME280;7947;48.834;9.132;2023-11-21T01:58:30;97571.88;;;9.90;95.17
15694;BME280;7947;48.834;9.132;2023-11-21T02:01:34;97568.81;;;10.01;93.25
15694;BME280;7947;48.834;9.132;2023-11-21T02:04:37;97566.22;;;9.91;92.99
15694;BME280;7947;48.834;9.132;2023-11-21T02:07:41;97569.78;;;9.87;92.86
15694;BME280;7947;48.834;9.132;2023-11-21T02:10:46;97568.69;;;9.88;93.55
15694;BME280;7947;48.834;9.132;2023-11-21T02:13:49;97567.44;;;9.80;94.54
15694;BME280;7947;48.834;9.132;2023-11-21T02:16:55;97572.50;;;9.82;94.42
15694;BME280;7947;48.834;9.132;2023-11-21T02:19:59;97568.41;;;9.89;94.73
15694;BME280;7947;48.834;9.132;2023-11-21T02:23:04;97565.94;;;9.93;94.43
15694;BME280;7947;48.834;9.132;2023-11-21T02:26:07;97556.56;;;9.95;94.34
15694;BME280;7947;48.834;9.132;2023-11-21T02:29:11;97557.34;;;9.96;94.42
15694;BME280;7947;48.834;9.132;2023-11-21T02:32:14;97566.13;;;10.01;94.49
15694;BME280;7947;48.834;9.132;2023-11-21T02:35:21;97568.00;;;10.01;94.88
15694;BME280;7947;48.834;9.132;2023-11-21T02:38:25;97560.25;;;9.99;95.14
15694;BME280;7947;48.834;9.132;2023-11-21T02:41:29;97563.78;;;9.95;94.78
15694;BME280;7947;48.834;9.132;2023-11-21T02:44:32;97550.06;;;10.01;95.34
15694;BME280;7947;48.834;9.132;2023-11-21T02:47:35;97554.84;;;10.04;94.65
15694;BME280;7947;48.834;9.132;2023-11-21T02:50:38;97548.88;;;10.13;94.07
15694;BME280;7947;48.834;9.132;2023-11-21T02:53:42;97551.00;;;10.16;92.60
15694;BME280;7947;48.834;9.132;2023-11-21T02:56:45;97553.91;;;10.19;92.54
15694;BME280;7947;48.834;9.132;2023-11-21T02:59:48;97548.13;;;10.12;92.02
15694;BME280;7947;48.834;9.132;2023-11-21T03:02:51;97543.72;;;10.21;91.62
15694;BME280;7947;48.834;9.132;2023-11-21T03:05:54;97549.41;;;10.15;91.28
15694;BME280;7947;48.834;9.132;2023-11-21T03:08:59;97551.31;;;10.09;92.21
15694;BME280;7947;48.834;9.132;2023-11-21T03:12:02;97559.94;;;10.06;91.55
15694;BME280;7947;48.834;9.132;2023-11-21T03:15:05;97554.16;;;9.94;92.96
15694;BME280;7947;48.834;9.132;2023-11-21T03:18:08;97556.72;;;9.80;93.31
15694;BME280;7947;48.834;9.132;2023-11-21T03:21:11;97552.69;;;9.83;94.29
15694;BME280;7947;48.834;9.132;2023-11-21T03:24:16;97557.84;;;9.74;93.91
15694;BME280;7947;48.834;9.132;2023-11-21T03:27:21;97560.28;;;9.71;94.49
15694;BME280;7947;48.834;9.132;2023-11-21T03:30:24;97560.81;;;9.73;95.15
15694;BME280;7947;48.834;9.132;2023-11-21T03:33:27;97560.72;;;9.83;95.47
15694;BME280;7947;48.834;9.132;2023-11-21T03:36:30;97559.59;;;9.89;94.83
15694;BME280;7947;48.834;9.132;2023-11-21T03:39:34;97564.44;;;9.87;94.80
15694;BME280;7947;48.834;9.132;2023-11-21T03:42:37;97567.03;;;9.92;94.56
15694;BME280;7947;48.834;9.132;2023-11-21T03:45:41;97562.38;;;9.79;94.69
15694;BME280;7947;48.834;9.132;2023-11-21T03:48:44;97565.34;;;9.77;95.08
15694;BME280;7947;48.834;9.132;2023-11-21T03:51:47;97572.09;;;9.93;95.22
15694;BME280;7947;48.834;9.132;2023-11-21T03:54:52;97577.69;;;9.97;94.59
15694;BME280;7947;48.834;9.132;2023-11-21T03:57:55;97578.44;;;9.79;94.84
15694;BME280;7947;48.834;9.132;2023-11-21T04:00:58;97576.34;;;9.71;95.74
15694;BME280;7947;48.834;9.132;2023-11-21T04:04:01;97584.16;;;9.67;96.05
15694;BME280;7947;48.834;9.132;2023-11-21T04:07:05;97580.09;;;9.70;96.29
15694;BME280;7947;48.834;9.132;2023-11-21T04:10:09;97581.13;;;9.74;96.23
15694;BME280;7947;48.834;9.132;2023-11-21T04:13:15;97575.56;;;9.70;96.87
15694;BME280;7947;48.834;9.132;2023-11-21T04:16:17;97580.38;;;9.68;96.49
15694;BME280;7947;48.834;9.132;2023-11-21T04:19:21;97578.28;;;9.65;96.83
15694;BME280;7947;48.834;9.132;2023-11-21T04:22:24;97577.78;;;9.63;96.60
15694;BME280;7947;48.834;9.132;2023-11-21T04:25:28;97577.47;;;9.65;96.80
15694;BME280;7947;48.834;9.132;2023-11-21T04:28:31;97573.72;;;9.66;96.49
15694;BME280;7947;48.834;9.132;2023-11-21T04:31:34;97573.47;;;9.62;96.50
15694;BME280;7947;48.834;9.132;2023-11-21T04:34:37;97578.53;;;9.69;95.91
15694;BME280;7947;48.834;9.132;2023-11-21T04:37:40;97573.72;;;9.66;95.72
15694;BME280;7947;48.834;9.132;2023-11-21T04:40:44;97587.69;;;9.63;94.94
15694;BME280;7947;48.834;9.132;2023-11-21T04:43:48;97584.25;;;9.57;94.88
15694;BME280;7947;48.834;9.132;2023-11-21T04:46:51;97588.56;;;9.53;95.04
15694;BME280;7947;48.834;9.132;2023-11-21T04:49:54;97581.94;;;9.46;95.52
15694;BME280;7947;48.834;9.132;2023-11-21T04:52:57;97593.69;;;9.50;95.19
15694;BME280;7947;48.834;9.132;2023-11-21T04:56:02;97593.72;;;9.45;95.16
15694;BME280;7947;48.834;9.132;2023-11-21T04:59:05;97588.56;;;9.53;95.47
15694;BME280;7947;48.834;9.132;2023-11-21T05:02:07;97594.50;;;9.45;94.89
15694;BME280;7947;48.834;9.132;2023-11-21T05:05:20;97597.44;;;9.49;94.19
15694;BME280;7947;48.834;9.132;2023-11-21T05:08:24;97588.34;;;9.45;94.51
15694;BME280;7947;48.834;9.132;2023-11-21T05:11:29;97592.19;;;9.39;94.57
15694;BME280;7947;48.834;9.132;2023-11-21T05:14:32;97599.88;;;9.45;94.74
15694;BME280;7947;48.834;9.132;2023-11-21T05:17:35;97599.91;;;9.40;94.42
15694;BME280;7947;48.834;9.132;2023-11-21T05:20:38;97597.47;;;9.44;94.76
15694;BME280;7947;48.834;9.132;2023-11-21T05:23:42;97607.91;;;9.45;93.33
15694;BME280;7947;48.834;9.132;2023-11-21T05:26:46;97613.47;;;9.49;92.94
15694;BME280;7947;48.834;9.132;2023-11-21T05:29:49;97618.94;;;9.39;92.56
15694;BME280;7947;48.834;9.132;2023-11-21T05:32:52;97624.59;;;9.27;92.99
15694;BME280;7947;48.834;9.132;2023-11-21T05:35:55;97622.28;;;9.21;93.18
15694;BME280;7947;48.834;9.132;2023-11-21T05:38:58;97628.69;;;9.20;93.96
15694;BME280;7947;48.834;9.132;2023-11-21T05:42:03;97622.03;;;9.17;93.90
15694;BME280;7947;48.834;9.132;2023-11-21T05:45:06;97639.13;;;9.16;93.98
15694;BME280;7947;48.834;9.132;2023-11-21T05:48:14;97636.97;;;9.23;93.62
15694;BME280;7947;48.834;9.132;2023-11-21T05:51:17;97639.41;;;9.15;94.05
15694;BME280;7947;48.834;9.132;2023-11-21T05:54:20;97643.19;;;9.14;94.54
15694;BME280;7947;48.834;9.132;2023-11-21T05:57:25;97648.84;;;9.07;94.67
15694;BME280;7947;48.834;9.132;2023-11-21T06:00:28;97641.63;;;9.02;95.08
15694;BME280;7947;48.834;9.132;2023-11-21T06:03:31;97642.16;;;9.04;96.19
15694;BME280;7947;48.834;9.132;2023-11-21T06:06:35;97648.84;;;9.02;95.50
15694;BME280;7947;48.834;9.132;2023-11-21T06:09:38;97646.97;;;9.07;95.54
15694;BME280;7947;48.834;9.132;2023-11-21T06:12:43;97647.50;;;9.04;95.69
15694;BME280;7947;48.834;9.132;2023-11-21T06:15:46;97660.63;;;9.01;96.00
15694;BME280;7947;48.834;9.132;2023-11-21T06:18:49;97660.88;;;9.04;96.03
15694;BME280;7947;48.834;9.132;2023-11-21T06:21:52;97660.34;;;9.02;95.90
15694;BME280;7947;48.834;9.132;2023-11-21T06:24:56;97672.38;;;9.05;96.07
15694;BME280;7947;48.834;9.132;2023-11-21T06:28:00;97677.75;;;9.00;95.96
15694;BME280;7947;48.834;9.132;2023-11-21T06:31:04;97672.88;;;9.12;96.25
15694;BME280;7947;48.834;9.132;2023-11-21T06:34:07;97672.63;;;9.08;95.34
15694;BME280;7947;48.834;9.132;2023-11-21T06:37:11;97672.13;;;9.01;95.74
15694;BME280;7947;48.834;9.132;2023-11-21T06:40:14;97678.22;;;9.12;96.01
15694;BME280;7947;48.834;9.132;2023-11-21T06:43:19;97679.44;;;8.86;95.80
15694;BME280;7947;48.834;9.132;2023-11-21T06:46:23;97691.97;;;8.90;96.02
15694;BME280;7947;48.834;9.132;2023-11-21T06:49:26;97696.72;;;9.03;96.09
15694;BME280;7947;48.834;9.132;2023-11-21T06:52:29;97692.69;;;9.06;96.08
15694;BME280;7947;48.834;9.132;2023-11-21T06:55:33;97692.34;;;9.18;95.67
15694;BME280;7947;48.834;9.132;2023-11-21T06:58:38;97695.31;;;9.21;94.66
15694;BME280;7947;48.834;9.132;2023-11-21T07:01:42;97712.16;;;9.17;94.86
15694;BME280;7947;48.834;9.132;2023-11-21T07:04:46;97704.97;;;9.12;95.39
15694;BME280;7947;48.834;9.132;2023-11-21T07:07:49;97713.56;;;9.04;95.81
15694;BME280;7947;48.834;9.132;2023-11-21T07:10:52;97716.19;;;9.14;96.20
15694;BME280;7947;48.834;9.132;2023-11-21T07:13:57;97716.66;;;9.26;95.03
15694;BME280;7947;48.834;9.132;2023-11-21T07:17:00;97714.78;;;9.27;95.11
15694;BME280;7947;48.834;9.132;2023-11-21T07:20:03;97726.28;;;9.27;95.02
15694;BME280;7947;48.834;9.132;2023-11-21T07:23:08;97721.97;;;9.36;95.14
15694;BME280;7947;48.834;9.132;2023-11-21T07:26:12;97733.25;;;9.28;95.15
15694;BME280;7947;48.834;9.132;2023-11-21T07:29:16;97736.72;;;9.24;95.90
15694;BME280;7947;48.834;9.132;2023-11-21T07:32:20;97739.38;;;9.34;95.82
15694;BME280;7947;48.834;9.132;2023-11-21T07:35:22;97736.44;;;9.30;95.50
15694;BME280;7947;48.834;9.132;2023-11-21T07:38:26;97743.38;;;9.31;95.76
15694;BME280;7947;48.834;9.132;2023-11-21T07:41:29;97745.28;;;9.31;96.65
15694;BME280;7947;48.834;9.132;2023-11-21T07:44:34;97747.09;;;9.40;96.36
15694;BME280;7947;48.834;9.132;2023-11-21T07:47:37;97752.44;;;9.40;96.98
15694;BME280;7947;48.834;9.132;2023-11-21T07:50:41;97748.34;;;9.53;97.19
15694;BME280;7947;48.834;9.132;2023-11-21T07:53:43;97753.06;;;9.66;96.95
15694;BME280;7947;48.834;9.132;2023-11-21T07:56:46;97756.84;;;9.65;96.73
15694;BME280;7947;48.834;9.132;2023-11-21T07:59:51;97757.13;;;9.63;97.48
15694;BME280;7947;48.834;9.132;2023-11-21T08:02:55;97756.25;;;9.73;97.17
15694;BME280;7947;48.834;9.132;2023-11-21T08:05:59;97764.81;;;9.75;97.27
15694;BME280;7947;48.834;9.132;2023-11-21T08:09:02;97763.72;;;9.81;97.71
15694;BME280;7947;48.834;9.132;2023-11-21T08:12:05;97763.72;;;9.81;97.67
15694;BME280;7947;48.834;9.132;2023-11-21T08:15:10;97765.00;;;9.83;97.43
15694;BME280;7947;48.834;9.132;2023-11-21T08:18:13;97764.44;;;9.91;97.17
15694;BME280;7947;48.834;9.132;2023-11-21T08:21:18;97754.72;;;10.00;97.17
15694;BME280;7947;48.834;9.132;2023-11-21T08:24:21;97759.47;;;10.09;96.57
15694;BME280;7947;48.834;9.132;2023-11-21T08:27:24;97768.84;;;10.16;96.58
15694;BME280;7947;48.834;9.132;2023-11-21T08:30:29;97773.25;;;10.31;95.70
15694;BME280;7947;48.834;9.132;2023-11-21T08:33:32;97776.41;;;10.38;95.91
15694;BME280;7947;48.834;9.132;2023-11-21T08:36:34;97768.03;;;10.44;95.62
15694;BME280;7947;48.834;9.132;2023-11-21T08:39:37;97773.34;;;10.49;95.09
15694;BME280;7947;48.834;9.132;2023-11-21T08:42:40;97774.06;;;10.60;94.56
15694;BME280;7947;48.834;9.132;2023-11-21T08:45:45;97771.94;;;10.57;94.46
15694;BME280;7947;48.834;9.132;2023-11-21T08:48:48;97776.22;;;10.58;93.29
15694;BME280;7947;48.834;9.132;2023-11-21T08:51:53;97784.47;;;10.66;93.52
15694;BME280;7947;48.834;9.132;2023-11-21T08:54:57;97793.00;;;10.68;92.56
15694;BME280;7947;48.834;9.132;2023-11-21T08:58:04;97785.75;;;10.69;92.64
15694;BME280;7947;48.834;9.132;2023-11-21T09:01:09;97790.00;;;10.75;93.09
15694;BME280;7947;48.834;9.132;2023-11-21T09:04:13;97796.72;;;10.72;93.08
15694;BME280;7947;48.834;9.132;2023-11-21T09:07:16;97793.78;;;10.74;94.21
15694;BME280;7947;48.834;9.132;2023-11-21T09:10:22;97798.28;;;10.78;92.13
15694;BME280;7947;48.834;9.132;2023-11-21T09:13:27;97791.84;;;10.79;91.78
15694;BME280;7947;48.834;9.132;2023-11-21T09:16:33;97797.75;;;10.76;93.05
15694;BME280;7947;48.834;9.132;2023-11-21T09:19:36;97802.88;;;10.73;92.73
15694;BME280;7947;48.834;9.132;2023-11-21T09:22:39;97810.47;;;10.66;93.16
15694;BME280;7947;48.834;9.132;2023-11-21T09:25:42;97816.66;;;10.66;93.57
15694;BME280;7947;48.834;9.132;2023-11-21T09:28:47;97819.03;;;10.68;93.51
15694;BME280;7947;48.834;9.132;2023-11-21T09:31:52;97819.88;;;10.63;93.56
15694;BME280;7947;48.834;9.132;2023-11-21T09:34:56;97818.03;;;10.59;93.90
15694;BME280;7947;48.834;9.132;2023-11-21T09:38:00;97820.25;;;10.52;94.55
15694;BME280;7947;48.834;9.132;2023-11-21T09:41:11;97818.91;;;10.54;95.11
15694;BME280;7947;48.834;9.132;2023-11-21T09:44:22;97817.03;;;10.50;95.02
15694;BME280;7947;48.834;9.132;2023-11-21T09:47:32;97829.47;;;10.41;95.47
15694;BME280;7947;48.834;9.132;2023-11-21T09:50:37;97830.97;;;10.52;95.47
15694;BME280;7947;48.834;9.132;2023-11-21T09:53:43;97827.22;;;10.53;96.45
15694;BME280;7947;48.834;9.132;2023-11-21T09:56:47;97837.38;;;10.56;96.08
15694;BME280;7947;48.834;9.132;2023-11-21T09:59:53;97846.59;;;10.45;95.85
15694;BME280;7947;48.834;9.132;2023-11-21T10:02:59;97844.50;;;10.37;95.96
15694;BME280;7947;48.834;9.132;2023-11-21T10:06:05;97842.13;;;10.35;96.25
15694;BME280;7947;48.834;9.132;2023-11-21T10:09:10;97843.41;;;10.38;96.56
15694;BME280;7947;48.834;9.132;2023-11-21T10:12:14;97840.72;;;10.38;96.69
15694;BME280;7947;48.834;9.132;2023-11-21T10:15:18;97838.31;;;10.41;96.69
15694;BME280;7947;48.834;9.132;2023-11-21T10:18:22;97842.28;;;10.44;96.66
15694;BME280;7947;48.834;9.132;2023-11-21T10:21:28;97847.13;;;10.47;96.49
15694;BME280;7947;48.834;9.132;2023-11-21T10:24:31;97841.47;;;10.48;95.88
15694;BME280;7947;48.834;9.132;2023-11-21T10:27:47;97847.41;;;10.40;95.95
15694;BME280;7947;48.834;9.132;2023-11-21T10:30:52;97851.44;;;10.43;96.33
15694;BME280;7947;48.834;9.132;2023-11-21T10:34:13;97842.53;;;10.47;96.50
15694;BME280;7947;48.834;9.132;2023-11-21T10:37:16;97846.59;;;10.45;95.58
15694;BME280;7947;48.834;9.132;2023-11-21T10:40:20;97857.25;;;10.55;96.26
15694;BME280;7947;48.834;9.132;2023-11-21T10:43:25;97847.81;;;10.57;96.65
15694;BME280;7947;48.834;9.132;2023-11-21T10:46:28;97845.63;;;10.64;96.68
15694;BME280;7947;48.834;9.132;2023-11-21T10:49:34;97849.75;;;10.80;96.53
15694;BME280;7947;48.834;9.132;2023-11-21T10:52:39;97850.91;;;10.98;96.38
15694;BME280;7947;48.834;9.132;2023-11-21T10:55:45;97852.75;;;11.03;95.12
15694;BME280;7947;48.834;9.132;2023-11-21T10:58:49;97853.28;;;11.05;94.17
15694;BME280;7947;48.834;9.132;2023-11-21T11:01:52;97851.63;;;11.09;93.61
15694;BME280;7947;48.834;9.132;2023-11-21T11:04:58;97850.44;;;11.20;92.51
15694;BME280;7947;48.834;9.132;2023-11-21T11:08:04;97848.78;;;11.24;91.65
15694;BME280;7947;48.834;9.132;2023-11-21T11:11:09;97857.00;;;11.32;91.25
15694;BME280;7947;48.834;9.132;2023-11-21T11:14:13;97852.31;;;11.43;91.06
15694;BME280;7947;48.834;9.132;2023-11-21T11:17:17;97840.31;;;11.59;90.74
15694;BME280;7947;48.834;9.132;2023-11-21T11:20:27;97842.81;;;11.74;90.29
15694;BME280;7947;48.834;9.132;2023-11-21T11:23:43;97844.44;;;12.12;89.14
15694;BME280;7947;48.834;9.132;2023-11-21T11:26:54;97857.22;;;12.71;86.08
15694;BME280;7947;48.834;9.132;2023-11-21T11:30:08;97850.19;;;12.89;84.66
15694;BME280;7947;48.834;9.132;2023-11-21T11:33:25;97858.09;;;12.66;83.69
15694;BME280;7947;48.834;9.132;2023-11-21T11:36:46;97862.94;;;12.51;84.21
15694;BME280;7947;48.834;9.132;2023-11-21T11:39:51;97848.19;;;12.30;84.70
15694;BME280;7947;48.834;9.132;2023-11-21T11:42:56;97852.50;;;12.12;85.68
15694;BME280;7947;48.834;9.132;2023-11-21T11:46:03;97862.75;;;11.92;86.57
15694;BME280;7947;48.834;9.132;2023-11-21T11:49:06;97861.56;;;11.79;88.03
15694;BME280;7947;48.834;9.132;2023-11-21T11:52:33;97862.69;;;11.73;89.02
15694;BME280;7947;48.834;9.132;2023-11-21T11:55:36;97858.34;;;11.77;88.53
15694;BME280;7947;48.834;9.132;2023-11-21T11:58:39;97852.19;;;11.76;88.08
15694;BME280;7947;48.834;9.132;2023-11-21T12:01:45;97855.41;;;11.78;88.54
15694;BME280;7947;48.834;9.132;2023-11-21T12:04:49;97856.25;;;11.74;88.00
15694;BME280;7947;48.834;9.132;2023-11-21T12:07:55;97858.00;;;11.60;87.53
15694;BME280;7947;48.834;9.132;2023-11-21T12:10:58;97862.97;;;11.48;89.22
15694;BME280;7947;48.834;9.132;2023-11-21T12:14:03;97861.56;;;11.32;89.91
15694;BME280;7947;48.834;9.132;2023-11-21T12:17:08;97868.09;;;11.26;91.51
15694;BME280;7947;48.834;9.132;2023-11-21T12:20:12;97874.00;;;11.23;92.19
15694;BME280;7947;48.834;9.132;2023-11-21T12:23:20;97869.53;;;11.13;92.73
15694;BME280;7947;48.834;9.132;2023-11-21T12:26:24;97872.00;;;11.10;93.56
15694;BME280;7947;48.834;9.132;2023-11-21T12:29:27;97876.03;;;11.07;93.79
15694;BME280;7947;48.834;9.132;2023-11-21T12:32:31;97877.88;;;11.12;94.27
15694;BME280;7947;48.834;9.132;2023-11-21T12:35:35;97871.38;;;11.18;94.20
15694;BME280;7947;48.834;9.132;2023-11-21T12:38:39;97872.88;;;11.29;94.21
15694;BME280;7947;48.834;9.132;2023-11-21T12:41:43;97876.00;;;11.59;92.33
15694;BME280;7947;48.834;9.132;2023-11-21T12:44:47;97880.50;;;11.69;91.50
15694;BME280;7947;48.834;9.132;2023-11-21T12:47:51;97882.09;;;11.70;91.79
15694;BME280;7947;48.834;9.132;2023-11-21T12:50:54;97887.63;;;11.78;92.22
15694;BME280;7947;48.834;9.132;2023-11-21T12:53:59;97880.53;;;11.88;92.43
15694;BME280;7947;48.834;9.132;2023-11-21T12:57:03;97879.16;;;12.09;92.39
15694;BME280;7947;48.834;9.132;2023-11-21T13:00:11;97898.13;;;12.17;90.24
15694;BME280;7947;48.834;9.132;2023-11-21T13:03:19;97902.41;;;12.00;86.79
15694;BME280;7947;48.834;9.132;2023-11-21T13:06:27;97901.59;;;11.81;86.82
15694;BME280;7947;48.834;9.132;2023-11-21T13:09:36;97891.03;;;11.60;85.32
15694;BME280;7947;48.834;9.132;2023-11-21T13:12:43;97904.34;;;11.47;86.42
15694;BME280;7947;48.834;9.132;2023-11-21T13:15:50;97903.78;;;11.26;87.76
15694;BME280;7947;48.834;9.132;2023-11-21T13:18:54;97907.41;;;11.12;89.30
15694;BME280;7947;48.834;9.132;2023-11-21T13:21:57;97916.97;;;10.94;91.10
15694;BME280;7947;48.834;9.132;2023-11-21T13:25:01;97916.72;;;10.90;92.32
15694;BME280;7947;48.834;9.132;2023-11-21T13:28:09;97924.06;;;10.80;92.90
15694;BME280;7947;48.834;9.132;2023-11-21T13:31:13;97934.59;;;10.71;94.02
15694;BME280;7947;48.834;9.132;2023-11-21T13:34:27;97932.97;;;10.70;94.48
15694;BME280;7947;48.834;9.132;2023-11-21T13:37:35;97931.38;;;10.69;94.77
15694;BME280;7947;48.834;9.132;2023-11-21T13:40:40;97935.66;;;10.70;94.73
15694;BME280;7947;48.834;9.132;2023-11-21T13:43:47;97929.16;;;10.76;95.15
15694;BME280;7947;48.834;9.132;2023-11-21T13:46:59;97934.00;;;10.74;95.97
15694;BME280;7947;48.834;9.132;2023-11-21T13:50:02;97929.75;;;10.73;96.02
15694;BME280;7947;48.834;9.132;2023-11-21T13:53:05;97936.38;;;10.81;96.23
15694;BME280;7947;48.834;9.132;2023-11-21T13:56:19;97937.97;;;10.82;95.88
15694;BME280;7947;48.834;9.132;2023-11-21T13:59:26;97944.66;;;10.84;96.00
15694;BME280;7947;48.834;9.132;2023-11-21T14:02:32;97953.81;;;10.83;95.83
15694;BME280;7947;48.834;9.132;2023-11-21T14:05:41;97946.81;;;10.82;95.82
15694;BME280;7947;48.834;9.132;2023-11-21T14:08:44;97954.34;;;10.80;95.10
15694;BME280;7947;48.834;9.132;2023-11-21T14:11:52;97968.56;;;10.81;95.57
15694;BME280;7947;48.834;9.132;2023-11-21T14:14:57;97971.25;;;10.81;95.31
15694;BME280;7947;48.834;9.132;2023-11-21T14:18:00;97966.69;;;10.81;95.15
15694;BME280;7947;48.834;9.132;2023-11-21T14:21:06;97974.75;;;10.81;95.50
15694;BME280;7947;48.834;9.132;2023-11-21T14:24:12;97973.13;;;10.85;95.46
15694;BME280;7947;48.834;9.132;2023-11-21T14:27:17;97980.06;;;10.86;95.22
15694;BME280;7947;48.834;9.132;2023-11-21T14:30:19;97977.94;;;10.83;95.20
15694;BME280;7947;48.834;9.132;2023-11-21T14:33:24;97983.09;;;10.80;94.92
15694;BME280;7947;48.834;9.132;2023-11-21T14:36:27;97989.56;;;10.74;94.96
15694;BME280;7947;48.834;9.132;2023-11-21T14:39:30;97982.63;;;10.68;95.36
15694;BME280;7947;48.834;9.132;2023-11-21T14:42:37;97985.06;;;10.64;95.37
15694;BME280;7947;48.834;9.132;2023-11-21T14:45:41;97994.41;;;10.67;95.32
15694;BME280;7947;48.834;9.132;2023-11-21T14:48:44;97990.66;;;10.68;95.58
15694;BME280;7947;48.834;9.132;2023-11-21T14:51:54;97998.44;;;10.69;94.67
15694;BME280;7947;48.834;9.132;2023-11-21T14:55:05;98002.13;;;10.78;94.41
15694;BME280;7947;48.834;9.132;2023-11-21T14:58:29;98012.88;;;10.73;94.61
15694;BME280;7947;48.834;9.132;2023-11-21T15:01:32;98008.88;;;10.71;94.21
15694;BME280;7947;48.834;9.132;2023-11-21T15:04:46;98017.19;;;10.69;94.61
15694;BME280;7947;48.834;9.132;2023-11-21T15:07:50;98017.78;;;10.66;94.80
15694;BME280;7947;48.834;9.132;2023-11-21T15:10:53;98017.50;;;10.63;95.07
15694;BME280;7947;48.834;9.132;2023-11-21T15:13:58;98030.91;;;10.63;94.72
15694;BME280;7947;48.834;9.132;2023-11-21T15:17:02;98037.13;;;10.58;94.48
15694;BME280;7947;48.834;9.132;2023-11-21T15:20:06;98037.66;;;10.60;94.47
15694;BME280;7947;48.834;9.132;2023-11-21T15:23:10;98043.81;;;10.56;95.14
15694;BME280;7947;48.834;9.132;2023-11-21T15:26:14;98049.75;;;10.53;95.96
15694;BME280;7947;48.834;9.132;2023-11-21T15:29:19;98050.81;;;10.52;96.42
15694;BME280;7947;48.834;9.132;2023-11-21T15:32:23;98059.38;;;10.54;96.44
15694;BME280;7947;48.834;9.132;2023-11-21T15:35:27;98057.56;;;10.44;96.72
15694;BME280;7947;48.834;9.132;2023-11-21T15:38:30;98058.38;;;10.40;97.15
15694;BME280;7947;48.834;9.132;2023-11-21T15:41:33;98060.28;;;10.39;97.35
15694;BME280;7947;48.834;9.132;2023-11-21T15:44:38;98062.13;;;10.44;97.77
15694;BME280;7947;48.834;9.132;2023-11-21T15:47:41;98066.41;;;10.45;96.97
15694;BME280;7947;48.834;9.132;2023-11-21T15:50:44;98068.56;;;10.38;97.19
15694;BME280;7947;48.834;9.132;2023-11-21T15:53:48;98071.53;;;10.41;97.11
15694;BME280;7947;48.834;9.132;2023-11-21T15:56:51;98069.09;;;10.45;97.08
15694;BME280;7947;48.834;9.132;2023-11-21T15:59:58;98077.91;;;10.45;96.24
15694;BME280;7947;48.834;9.132;2023-11-21T16:03:01;98080.63;;;10.40;96.83
15694;BME280;7947;48.834;9.132;2023-11-21T16:06:05;98078.47;;;10.42;96.46
15694;BME280;7947;48.834;9.132;2023-11-21T16:09:11;98090.25;;;10.46;96.69
15694;BME280;7947;48.834;9.132;2023-11-21T16:12:23;98090.28;;;10.41;96.63
15694;BME280;7947;48.834;9.132;2023-11-21T16:15:27;98097.81;;;10.34;96.58
15694;BME280;7947;48.834;9.132;2023-11-21T16:18:30;98091.09;;;10.32;95.81
15694;BME280;7947;48.834;9.132;2023-11-21T16:21:33;98101.03;;;10.31;95.24
15694;BME280;7947;48.834;9.132;2023-11-21T16:24:36;98098.06;;;10.38;94.75
15694;BME280;7947;48.834;9.132;2023-11-21T16:27:40;98109.09;;;10.31;93.73
15694;BME280;7947;48.834;9.132;2023-11-21T16:30:45;98115.53;;;10.20;93.56
15694;BME280;7947;48.834;9.132;2023-11-21T16:33:48;98116.38;;;10.00;92.72
15694;BME280;7947;48.834;9.132;2023-11-21T16:36:51;98124.41;;;9.90;90.84